Time;durP1;ratioP1;P1;durP2;ratioP2;P2;SDS_P1;SDS_P2;PMS_P1;PMS_P2;Temp;Humidity;BMP_temperature;BMP_pressure;BME280_temperature;BME280_humidity;BME280_pressure;Samples;Min_cycle;Max_cycle;Signal;HPM_P1;HPM_P2
2021/12/01 00:00:52;;;;;;;1999.90;999.90;;;;;;;3.40;89.27;163302.66;5056834;28;20095;-67
2021/12/01 00:03:19;;;;;;;1999.90;999.90;;;;;;;3.68;89.02;163379.38;5055944;28;20075;-65
2021/12/01 00:05:47;;;;;;;1999.90;999.90;;;;;;;3.53;88.91;163339.63;5068324;28;20405;-65
2021/12/01 00:08:15;;;;;;;1999.90;999.90;;;;;;;3.42;89.87;163308.09;5063342;28;20083;-65
2021/12/01 00:10:42;;;;;;;1999.90;999.90;;;;;;;3.34;89.69;163287.56;5069736;28;20099;-65
2021/12/01 00:13:13;;;;;;;1999.90;999.90;;;;;;;3.29;89.95;163273.81;5067753;28;20075;-65
2021/12/01 00:15:41;;;;;;;1999.90;999.90;;;;;;;3.48;90.10;163325.94;5058917;28;20087;-65
2021/12/01 00:18:09;;;;;;;1999.90;999.90;;;;;;;3.58;90.95;163350.59;5067381;28;20434;-65
2021/12/01 00:20:36;;;;;;;1999.90;999.90;;;;;;;3.43;90.87;163312.22;5056618;28;20072;-65
2021/12/01 00:23:03;;;;;;;1999.90;999.90;;;;;;;3.43;90.97;163310.88;5063849;28;20048;-65
2021/12/01 00:25:32;;;;;;;1999.90;999.90;;;;;;;3.44;91.60;163314.97;5065827;28;20068;-65
2021/12/01 00:27:59;;;;;;;1999.90;999.90;;;;;;;3.41;92.29;163306.75;5067842;28;20056;-66
2021/12/01 00:30:25;;;;;;;1999.90;999.90;;;;;;;3.50;92.25;163330.06;5065833;28;20083;-66
2021/12/01 00:32:54;;;;;;;1999.90;999.90;;;;;;;3.46;92.96;163320.44;5064616;28;20290;-66
2021/12/01 00:35:21;;;;;;;1999.90;999.90;;;;;;;3.28;93.24;163272.47;5066853;28;20126;-66
2021/12/01 00:37:48;;;;;;;1999.90;999.90;;;;;;;3.38;92.58;163298.53;5058309;28;20064;-66
2021/12/01 00:40:15;;;;;;;1999.90;999.90;;;;;;;3.51;92.97;163332.75;5053694;28;20338;-66
2021/12/01 00:42:43;;;;;;;1999.90;999.90;;;;;;;3.27;92.40;163268.38;5055398;28;20059;-66
2021/12/01 00:45:18;;;;;;;1999.90;999.90;;;;;;;3.37;91.26;163295.78;5058536;28;20046;-66
2021/12/01 00:47:49;;;;;;;1999.90;999.90;;;;;;;3.37;90.99;163295.78;5065993;28;20470;-65
2021/12/01 00:50:26;;;;;;;1999.90;999.90;;;;;;;3.09;90.85;163220.41;5064250;28;20058;-66
2021/12/01 00:52:56;;;;;;;1999.90;999.90;;;;;;;3.27;89.73;163269.72;5062203;28;20057;-66
2021/12/01 00:55:23;;;;;;;1999.90;999.90;;;;;;;3.59;90.17;163353.31;5065977;28;20382;-65
2021/12/01 00:57:51;;;;;;;1999.90;999.90;;;;;;;3.34;89.30;163287.56;5064511;28;20427;-65
2021/12/01 01:00:20;;;;;;;1999.90;999.90;;;;;;;3.47;89.02;163323.19;5058506;28;20084;-65
2021/12/01 01:02:47;;;;;;;1999.90;999.90;;;;;;;3.37;88.94;163295.78;5060879;28;20098;-66
2021/12/01 01:05:14;;;;;;;1999.90;999.90;;;;;;;3.64;89.22;163368.41;5057589;28;20040;-65
2021/12/01 01:07:41;;;;;;;1999.90;999.90;;;;;;;3.50;90.13;163331.41;5065637;28;20210;-65
2021/12/01 01:11:09;;;;;;;1999.90;999.90;;;;;;;3.65;88.86;163371.16;5064475;28;20040;-65
2021/12/01 01:18:38;;;;;;;1999.90;999.90;;;;;;;3.48;88.69;163324.53;5062058;28;20052;-65
2021/12/01 01:21:06;;;;;;;1999.90;999.90;;;;;;;3.42;89.15;163309.47;5063473;28;20052;-64
2021/12/01 01:23:34;;;;;;;1999.90;999.90;;;;;;;3.39;88.73;163301.25;5066637;28;20673;-65
2021/12/01 01:26:02;;;;;;;1999.90;999.90;;;;;;;3.81;88.10;163413.66;5065216;28;20045;-65
2021/12/01 01:28:29;;;;;;;1999.90;999.90;;;;;;;3.68;87.02;163378.03;5062655;28;20121;-65
2021/12/01 01:30:56;;;;;;;1999.90;999.90;;;;;;;3.98;87.57;163457.53;5055400;28;20182;-65
2021/12/01 01:33:23;;;;;;;1999.90;999.90;;;;;;;4.20;86.05;163517.84;5054620;28;20374;-65
2021/12/01 01:35:51;;;;;;;1999.90;999.90;;;;;;;3.72;87.73;163388.97;5060161;28;20110;-65
2021/12/01 01:38:19;;;;;;;1999.90;999.90;;;;;;;3.98;87.04;163457.53;5065783;28;20045;-64
2021/12/01 01:40:46;;;;;;;1999.90;999.90;;;;;;;4.18;86.14;163512.41;5065656;28;20102;-64
2021/12/01 01:43:14;;;;;;;1999.90;999.90;;;;;;;4.23;86.81;163526.09;5058348;28;20057;-64
2021/12/01 01:45:41;;;;;;;1999.90;999.90;;;;;;;4.21;87.09;163520.63;5052390;28;20045;-64
2021/12/01 01:48:13;;;;;;;1999.90;999.90;;;;;;;4.35;86.36;163556.28;5058070;28;20080;-64
2021/12/01 01:50:42;;;;;;;1999.90;999.90;;;;;;;4.58;86.28;163617.97;5058063;28;20052;-64
2021/12/01 01:53:10;;;;;;;1999.90;999.90;;;;;;;4.56;85.77;163612.50;5061287;28;20107;-64
2021/12/01 01:55:45;;;;;;;1999.90;999.90;;;;;;;3.83;88.01;163419.13;5065579;28;20053;-64
2021/12/01 01:58:14;;;;;;;1999.90;999.90;;;;;;;3.73;87.93;163391.72;5055305;28;20076;-63
2021/12/01 02:00:51;;;;;;;1999.90;999.90;;;;;;;3.68;88.58;163379.38;5059754;28;20110;-64
2021/12/01 02:03:21;;;;;;;1999.90;999.90;;;;;;;3.87;87.81;163430.13;5063082;28;20053;-64
2021/12/01 02:05:48;;;;;;;1999.90;999.90;;;;;;;3.90;87.42;163435.56;5061555;28;20048;-64
2021/12/01 02:08:17;;;;;;;1999.90;999.90;;;;;;;3.79;88.04;163406.81;5064588;28;20052;-64
2021/12/01 02:10:48;;;;;;;1999.90;999.90;;;;;;;4.03;87.83;163471.22;5052700;28;20102;-64
2021/12/01 02:13:19;;;;;;;1999.90;999.90;;;;;;;4.54;85.83;163606.97;5059155;28;20468;-64
2021/12/01 02:15:48;;;;;;;1999.90;999.90;;;;;;;4.63;85.03;163630.31;5065367;28;20044;-64
2021/12/01 02:18:15;;;;;;;1999.90;999.90;;;;;;;4.86;84.63;163692.06;5068693;28;20044;-64
2021/12/01 02:21:05;;;;;;;1999.90;999.90;;;;;;;4.85;83.81;163690.66;5066814;28;20079;-62
2021/12/01 02:23:34;;;;;;;1999.90;999.90;;;;;;;4.59;84.34;163620.72;5057598;28;20073;-63
2021/12/01 02:26:02;;;;;;;1999.90;999.90;;;;;;;3.77;88.09;163402.69;5058525;28;20434;-63
2021/12/01 02:28:30;;;;;;;1999.90;999.90;;;;;;;3.46;89.66;163320.44;5065206;28;20105;-64
2021/12/01 02:30:58;;;;;;;1999.90;999.90;;;;;;;2.93;92.33;163177.91;5057523;28;20041;-63
2021/12/01 02:33:24;;;;;;;1999.90;999.90;;;;;;;3.46;91.66;163319.09;5063922;28;20110;-63
2021/12/01 02:35:51;;;;;;;1999.90;999.90;;;;;;;3.19;92.42;163247.81;5062259;28;20102;-63
2021/12/01 02:38:19;;;;;;;1999.90;999.90;;;;;;;3.12;92.80;163228.63;5059645;28;20079;-64
2021/12/01 02:40:47;;;;;;;1999.90;999.90;;;;;;;2.99;94.45;163194.34;5063025;28;20099;-64
2021/12/01 02:43:13;;;;;;;1999.90;999.90;;;;;;;2.69;96.29;163114.91;5066311;28;20312;-63
2021/12/01 02:45:40;;;;;;;1999.90;999.90;;;;;;;3.03;95.34;163205.31;5053532;28;20132;-63
2021/12/01 02:48:11;;;;;;;1999.90;999.90;;;;;;;3.62;93.57;163362.94;5061483;28;20048;-63
2021/12/01 02:50:39;;;;;;;1999.90;999.90;;;;;;;3.70;92.62;163383.50;5057861;28;20088;-63
2021/12/01 02:53:06;;;;;;;1999.90;999.90;;;;;;;3.15;95.10;163238.19;5060752;28;20049;-63
2021/12/01 02:55:39;;;;;;;1999.90;999.90;;;;;;;3.33;95.17;163284.78;5061405;28;20381;-63
2021/12/01 02:58:06;;;;;;;1999.90;999.90;;;;;;;3.52;94.42;163336.88;5061949;28;20653;-63
2021/12/01 03:00:36;;;;;;;1999.90;999.90;;;;;;;3.15;95.28;163238.19;5062810;28;20464;-64
2021/12/01 03:03:04;;;;;;;1999.90;999.90;;;;;;;3.35;95.72;163290.31;5060827;28;20111;-63
2021/12/01 03:05:31;;;;;;;1999.90;999.90;;;;;;;3.35;95.17;163291.66;5063641;28;20041;-63
2021/12/01 03:07:57;;;;;;;1999.90;999.90;;;;;;;3.28;95.72;163271.13;5052507;28;20432;-63
2021/12/01 03:10:24;;;;;;;1999.90;999.90;;;;;;;3.16;95.97;163239.59;5059580;28;20071;-63
2021/12/01 03:12:51;;;;;;;1999.90;999.90;;;;;;;2.88;97.57;163164.25;5059436;28;20091;-63
2021/12/01 03:15:19;;;;;;;1999.90;999.90;;;;;;;3.14;96.41;163235.50;5057512;28;20048;-63
2021/12/01 03:17:45;;;;;;;1999.90;999.90;;;;;;;3.29;95.97;163273.81;5060242;28;20110;-63
2021/12/01 03:20:14;;;;;;;1999.90;999.90;;;;;;;3.16;96.60;163240.94;5063834;28;20106;-63
2021/12/01 03:22:42;;;;;;;1999.90;999.90;;;;;;;3.04;96.38;163208.06;5060874;28;20310;-63
2021/12/01 03:25:11;;;;;;;1999.90;999.90;;;;;;;2.96;96.99;163187.53;5058661;28;20069;-63
2021/12/01 03:27:39;;;;;;;1999.90;999.90;;;;;;;2.95;97.00;163183.44;5064579;28;20112;-63
2021/12/01 03:30:07;;;;;;;1999.90;999.90;;;;;;;2.81;96.72;163147.81;5058640;28;20052;-63
2021/12/01 03:32:34;;;;;;;1999.90;999.90;;;;;;;3.17;96.31;163243.72;5056083;28;20102;-62
2021/12/01 03:35:04;;;;;;;1999.90;999.90;;;;;;;3.43;94.67;163312.22;5063114;28;20048;-62
2021/12/01 03:37:31;;;;;;;1999.90;999.90;;;;;;;3.47;93.84;163323.19;5061155;28;20056;-62
2021/12/01 03:39:59;;;;;;;1999.90;999.90;;;;;;;2.94;95.89;163180.66;5061160;28;20080;-63
2021/12/01 03:42:27;;;;;;;1999.90;999.90;;;;;;;2.90;96.68;163169.69;5062786;28;20052;-63
2021/12/01 03:44:56;;;;;;;1999.90;999.90;;;;;;;2.91;95.99;163173.81;5053631;28;20435;-62
2021/12/01 03:47:24;;;;;;;1999.90;999.90;;;;;;;2.92;97.15;163175.22;5061861;28;20049;-62
2021/12/01 03:49:50;;;;;;;1999.90;999.90;;;;;;;3.15;95.21;163238.19;5061592;28;20495;-62
2021/12/01 03:52:18;;;;;;;1999.90;999.90;;;;;;;3.38;94.79;163298.53;5056362;28;20060;-62
2021/12/01 03:54:48;;;;;;;1999.90;999.90;;;;;;;3.58;93.76;163350.59;5055094;28;20072;-62
2021/12/01 03:57:15;;;;;;;1999.90;999.90;;;;;;;3.58;93.68;163350.59;5060982;28;20064;-62
2021/12/01 03:59:43;;;;;;;1999.90;999.90;;;;;;;3.32;94.45;163282.03;5066771;28;20442;-62
2021/12/01 04:02:10;;;;;;;1999.90;999.90;;;;;;;3.52;93.89;163335.53;5059376;28;20106;-62
2021/12/01 04:04:37;;;;;;;1999.90;999.90;;;;;;;3.50;93.64;163330.06;5059021;28;20406;-62
2021/12/01 04:07:04;;;;;;;1999.90;999.90;;;;;;;3.33;93.99;163284.78;5057155;28;20045;-62
2021/12/01 04:09:32;;;;;;;1999.90;999.90;;;;;;;3.29;95.05;163275.22;5065413;28;20393;-62
2021/12/01 04:11:59;;;;;;;1999.90;999.90;;;;;;;3.50;94.25;163330.06;5061920;28;20508;-62
2021/12/01 04:14:26;;;;;;;1999.90;999.90;;;;;;;3.14;95.93;163235.50;5063591;28;20313;-62
2021/12/01 04:16:52;;;;;;;1999.90;999.90;;;;;;;3.58;94.66;163350.59;5056252;28;20076;-62
2021/12/01 04:19:19;;;;;;;1999.90;999.90;;;;;;;3.49;93.90;163328.66;5056990;28;20087;-62
2021/12/01 04:21:46;;;;;;;1999.90;999.90;;;;;;;3.42;94.79;163308.09;5058741;28;20079;-62
2021/12/01 04:24:13;;;;;;;1999.90;999.90;;;;;;;3.74;93.43;163394.47;5058584;28;20190;-62
2021/12/01 04:26:39;;;;;;;1999.90;999.90;;;;;;;3.42;95.21;163309.47;5060264;28;20080;-63
2021/12/01 04:29:06;;;;;;;1999.90;999.90;;;;;;;3.76;93.89;163399.94;5054335;28;20087;-62
2021/12/01 04:31:38;;;;;;;1999.90;999.90;;;;;;;3.49;93.74;163328.66;5060998;28;20138;-62
2021/12/01 04:34:05;;;;;;;1999.90;999.90;;;;;;;3.74;93.99;163394.47;5058286;28;20060;-64
2021/12/01 04:36:34;;;;;;;1999.90;999.90;;;;;;;3.67;93.50;163376.63;5063553;28;20045;-64
2021/12/01 04:39:03;;;;;;;1999.90;999.90;;;;;;;3.77;93.88;163402.69;5065941;28;20049;-64
2021/12/01 04:41:36;;;;;;;1999.90;999.90;;;;;;;4.04;92.13;163475.34;5057936;28;20077;-63
2021/12/01 04:44:08;;;;;;;1999.90;999.90;;;;;;;3.86;93.70;163427.34;5054064;28;20080;-63
2021/12/01 04:46:46;;;;;;;1999.90;999.90;;;;;;;3.34;94.34;163287.56;5065408;28;20337;-63
2021/12/01 04:49:19;;;;;;;1999.90;999.90;;;;;;;3.82;93.97;163416.38;5057935;28;20044;-63
2021/12/01 04:51:54;;;;;;;1999.90;999.90;;;;;;;4.16;92.29;163505.53;5065834;28;20117;-63
2021/12/01 04:54:21;;;;;;;1999.90;999.90;;;;;;;4.48;90.78;163591.94;5062485;28;20052;-64
2021/12/01 04:56:48;;;;;;;1999.90;999.90;;;;;;;4.13;91.53;163498.66;5062942;28;20083;-63
2021/12/01 04:59:16;;;;;;;1999.90;999.90;;;;;;;3.92;92.37;163441.09;5062946;28;20088;-63
2021/12/01 05:01:43;;;;;;;1999.90;999.90;;;;;;;3.99;92.26;163460.25;5065115;28;20389;-63
2021/12/01 05:04:11;;;;;;;1999.90;999.90;;;;;;;4.31;90.95;163546.66;5070658;28;20174;-63
2021/12/01 05:06:38;;;;;;;1999.90;999.90;;;;;;;4.43;90.25;163578.19;5063172;28;20091;-64
2021/12/01 05:09:08;;;;;;;1999.90;999.90;;;;;;;4.34;90.86;163553.53;5073131;28;20761;-63
2021/12/01 05:11:34;;;;;;;1999.90;999.90;;;;;;;4.36;90.45;163558.97;5055555;28;20049;-64
2021/12/01 05:14:10;;;;;;;1999.90;999.90;;;;;;;4.79;89.34;163674.19;5056880;28;20059;-63
2021/12/01 05:16:37;;;;;;;1999.90;999.90;;;;;;;4.98;88.59;163723.63;5065295;28;20126;-64
2021/12/01 05:19:05;;;;;;;1999.90;999.90;;;;;;;4.87;88.36;163696.19;5060620;28;20106;-63
2021/12/01 05:21:32;;;;;;;1999.90;999.90;;;;;;;4.74;88.43;163660.50;5058478;28;20272;-63
2021/12/01 05:24:00;;;;;;;1999.90;999.90;;;;;;;4.76;88.71;163665.97;5068299;28;20118;-63
2021/12/01 05:26:27;;;;;;;1999.90;999.90;;;;;;;4.91;88.23;163707.16;5064416;28;20076;-63
2021/12/01 05:28:54;;;;;;;1999.90;999.90;;;;;;;5.03;87.61;163737.31;5062200;28;20090;-63
2021/12/01 05:31:20;;;;;;;1999.90;999.90;;;;;;;5.14;87.65;163767.53;5064049;28;20056;-63
2021/12/01 05:33:47;;;;;;;1999.90;999.90;;;;;;;5.05;87.70;163742.84;5068359;28;20088;-63
2021/12/01 05:36:14;;;;;;;1999.90;999.90;;;;;;;5.12;87.90;163762.00;5065585;28;20095;-64
2021/12/01 05:38:40;;;;;;;1999.90;999.90;;;;;;;5.13;87.80;163763.41;5067230;28;20395;-64
2021/12/01 05:41:07;;;;;;;1999.90;999.90;;;;;;;5.32;87.25;163815.56;5057701;28;20060;-63
2021/12/01 05:43:33;;;;;;;1999.90;999.90;;;;;;;5.23;87.58;163790.84;5066083;28;20137;-63
2021/12/01 05:46:00;;;;;;;1999.90;999.90;;;;;;;5.41;86.94;163838.88;5061427;28;20458;-64
2021/12/01 05:48:27;;;;;;;1999.90;999.90;;;;;;;5.22;87.76;163789.44;5066207;28;20055;-63
2021/12/01 05:50:53;;;;;;;1999.90;999.90;;;;;;;5.29;87.15;163808.66;5056598;28;20057;-63
2021/12/01 05:53:20;;;;;;;1999.90;999.90;;;;;;;5.46;86.76;163854.00;5065184;28;20044;-64
2021/12/01 05:55:47;;;;;;;1999.90;999.90;;;;;;;5.45;86.48;163849.88;5061349;28;20048;-63
2021/12/01 05:58:13;;;;;;;1999.90;999.90;;;;;;;5.46;86.34;163852.59;5056804;28;20076;-64
2021/12/01 06:00:40;;;;;;;1999.90;999.90;;;;;;;5.51;86.03;163866.34;5058227;28;20134;-64
2021/12/01 06:03:07;;;;;;;1999.90;999.90;;;;;;;5.51;86.16;163866.34;5065370;28;20048;-63
2021/12/01 06:05:34;;;;;;;1999.90;999.90;;;;;;;5.44;86.33;163847.13;5063902;28;20076;-64
2021/12/01 06:08:01;;;;;;;1999.90;999.90;;;;;;;5.19;86.81;163781.22;5068941;28;20044;-64
2021/12/01 06:10:27;;;;;;;1999.90;999.90;;;;;;;5.22;86.81;163788.09;5068093;28;20048;-64
2021/12/01 06:12:54;;;;;;;1999.90;999.90;;;;;;;5.23;86.31;163792.22;5057512;28;20040;-63
2021/12/01 06:15:21;;;;;;;1999.90;999.90;;;;;;;5.13;87.10;163764.75;5063170;28;20069;-63
2021/12/01 06:17:47;;;;;;;1999.90;999.90;;;;;;;5.18;87.17;163778.50;5059300;28;20075;-63
2021/12/01 06:20:15;;;;;;;1999.90;999.90;;;;;;;4.81;87.58;163679.72;5060752;28;20087;-63
2021/12/01 06:22:43;;;;;;;1999.90;999.90;;;;;;;4.73;88.25;163657.75;5062544;28;20044;-63
2021/12/01 06:25:11;;;;;;;1999.90;999.90;;;;;;;4.78;88.15;163670.09;5064230;28;20100;-63
2021/12/01 06:27:37;;;;;;;1999.90;999.90;;;;;;;5.03;87.38;163737.31;5059404;28;20118;-64
2021/12/01 06:30:05;;;;;;;1999.90;999.90;;;;;;;4.97;87.49;163720.84;5056967;28;20041;-64
2021/12/01 06:32:32;;;;;;;1999.90;999.90;;;;;;;5.13;87.25;163763.41;5066299;28;20427;-64
2021/12/01 06:34:59;;;;;;;1999.90;999.90;;;;;;;5.08;87.27;163751.06;5068246;28;20075;-64
2021/12/01 06:37:25;;;;;;;1999.90;999.90;;;;;;;5.11;87.22;163760.66;5063369;28;20111;-64
2021/12/01 06:39:52;;;;;;;1999.90;999.90;;;;;;;4.99;87.29;163726.31;5066560;28;20053;-63
2021/12/01 06:42:19;;;;;;;1999.90;999.90;;;;;;;4.78;87.82;163670.09;5055666;28;20076;-64
2021/12/01 06:44:45;;;;;;;1999.90;999.90;;;;;;;5.04;87.51;163741.44;5060758;28;20106;-64
2021/12/01 06:47:12;;;;;;;1999.90;999.90;;;;;;;4.69;88.29;163646.75;5063916;28;20048;-64
2021/12/01 06:49:38;;;;;;;1999.90;999.90;;;;;;;4.66;88.50;163639.94;5068842;28;20075;-63
2021/12/01 06:52:05;;;;;;;1999.90;999.90;;;;;;;4.83;87.94;163685.19;5064233;28;20083;-63
2021/12/01 06:54:32;;;;;;;1999.90;999.90;;;;;;;4.91;87.79;163707.16;5064645;28;20049;-63
2021/12/01 06:56:58;;;;;;;1999.90;999.90;;;;;;;4.75;88.82;163663.25;5070277;28;20075;-63
2021/12/01 06:59:25;;;;;;;1999.90;999.90;;;;;;;4.85;88.42;163690.66;5057946;28;20065;-63
2021/12/01 07:01:52;;;;;;;1999.90;999.90;;;;;;;4.96;87.93;163719.50;5068804;28;20060;-63
2021/12/01 07:04:18;;;;;;;1999.90;999.90;;;;;;;4.54;89.12;163606.97;5075961;28;20097;-63
2021/12/01 07:06:45;;;;;;;1999.90;999.90;;;;;;;4.44;89.91;163579.53;5062713;28;20044;-63
2021/12/01 07:09:19;;;;;;;1999.90;999.90;;;;;;;4.65;89.67;163637.19;5065740;28;20052;-63
2021/12/01 07:11:46;;;;;;;1999.90;999.90;;;;;;;4.36;90.34;163558.97;5067046;28;20064;-63
2021/12/01 07:14:13;;;;;;;1999.90;999.90;;;;;;;4.35;90.78;163557.63;5056283;28;20083;-62
2021/12/01 07:16:39;;;;;;;1999.90;999.90;;;;;;;4.19;91.12;163513.75;5057538;28;20094;-63
2021/12/01 07:19:06;;;;;;;1999.90;999.90;;;;;;;4.32;90.59;163548.06;5058377;28;20132;-63
2021/12/01 07:21:35;;;;;;;1999.90;999.90;;;;;;;4.12;91.15;163494.53;5055537;28;20401;-63
2021/12/01 07:24:03;;;;;;;1999.90;999.90;;;;;;;4.25;91.59;163528.84;5059987;28;20084;-63
2021/12/01 07:26:30;;;;;;;1999.90;999.90;;;;;;;4.09;92.21;163486.31;5060350;28;20098;-63
2021/12/01 07:28:56;;;;;;;1999.90;999.90;;;;;;;4.06;92.17;163479.44;5061760;28;20381;-63
2021/12/01 07:31:23;;;;;;;1999.90;999.90;;;;;;;3.67;93.78;163375.28;5062838;28;20102;-63
2021/12/01 07:33:50;;;;;;;1999.90;999.90;;;;;;;3.89;93.07;163434.22;5067457;28;20048;-63
2021/12/01 07:36:17;;;;;;;1999.90;999.90;;;;;;;4.14;92.56;163501.41;5063977;28;20080;-63
2021/12/01 07:38:43;;;;;;;1999.90;999.90;;;;;;;4.16;91.98;163506.88;5056620;28;20040;-62
2021/12/01 07:41:10;;;;;;;1999.90;999.90;;;;;;;4.00;92.88;163463.00;5067028;28;20098;-63
2021/12/01 07:43:36;;;;;;;1999.90;999.90;;;;;;;3.94;92.95;163447.91;5064311;28;20106;-63
2021/12/01 07:46:03;;;;;;;1999.90;999.90;;;;;;;4.06;92.81;163479.44;5059976;28;20076;-63
2021/12/01 07:48:31;;;;;;;1999.90;999.90;;;;;;;3.90;93.74;163436.97;5066613;28;20055;-63
2021/12/01 07:50:58;;;;;;;1999.90;999.90;;;;;;;4.01;93.74;163465.75;5055443;28;20072;-63
2021/12/01 07:53:24;;;;;;;1999.90;999.90;;;;;;;4.31;92.82;163545.28;5058437;28;20435;-63
2021/12/01 07:55:51;;;;;;;1999.90;999.90;;;;;;;4.52;91.86;163602.88;5056198;28;20041;-63
2021/12/01 07:58:17;;;;;;;1999.90;999.90;;;;;;;4.52;92.17;163602.88;5056496;28;20137;-63
2021/12/01 08:00:44;;;;;;;1999.90;999.90;;;;;;;4.23;93.50;163526.09;5061899;28;20256;-63
2021/12/01 08:03:11;;;;;;;1999.90;999.90;;;;;;;4.31;93.52;163545.28;5064383;28;20076;-63
2021/12/01 08:05:38;;;;;;;1999.90;999.90;;;;;;;4.38;93.49;163564.50;5060991;28;20051;-63
2021/12/01 08:08:06;;;;;;;1999.90;999.90;;;;;;;4.48;93.16;163591.94;5059921;28;20103;-64
2021/12/01 08:10:32;;;;;;;1999.90;999.90;;;;;;;4.54;94.12;163608.38;5066490;28;20048;-62
2021/12/01 08:13:00;;;;;;;1999.90;999.90;;;;;;;4.23;95.18;163524.72;5063455;28;20044;-62
2021/12/01 08:15:47;;;;;;;1999.90;999.90;;;;;;;4.51;95.20;163600.16;5061631;28;20078;-62
2021/12/01 08:18:15;;;;;;;1999.90;999.90;;;;;;;4.17;96.97;163508.28;5061637;28;20057;-62
2021/12/01 08:20:42;;;;;;;1999.90;999.90;;;;;;;4.37;96.95;163561.75;5059341;28;20048;-63
2021/12/01 08:23:08;;;;;;;1999.90;999.90;;;;;;;3.94;98.82;163446.56;5055379;28;20041;-63
2021/12/01 08:25:35;;;;;;;1999.90;999.90;;;;;;;4.17;99.77;163509.63;5065673;28;20036;-63
2021/12/01 08:28:02;;;;;;;1999.90;999.90;;;;;;;4.10;100.00;163490.44;5056852;28;20049;-63
2021/12/01 08:30:30;;;;;;;1999.90;999.90;;;;;;;4.15;100.00;163504.13;5058486;28;20114;-63
2021/12/01 08:32:57;;;;;;;1999.90;999.90;;;;;;;4.39;100.00;163567.22;5065455;28;20049;-63
2021/12/01 08:35:24;;;;;;;1999.90;999.90;;;;;;;4.23;100.00;163524.72;5082450;28;20052;-63
2021/12/01 08:37:51;;;;;;;1999.90;999.90;;;;;;;4.66;99.64;163638.53;5060436;28;20044;-63
2021/12/01 08:40:18;;;;;;;1999.90;999.90;;;;;;;4.36;100.00;163558.97;5062482;28;20074;-63
2021/12/01 08:42:46;;;;;;;1999.90;999.90;;;;;;;4.52;100.00;163602.88;5070807;28;20110;-63
2021/12/01 08:45:13;;;;;;;1999.90;999.90;;;;;;;4.94;100.00;163715.38;5057186;28;20057;-63
2021/12/01 08:47:40;;;;;;;1999.90;999.90;;;;;;;4.50;100.00;163597.41;5060568;28;20098;-64
2021/12/01 08:50:08;;;;;;;1999.90;999.90;;;;;;;4.84;100.00;163686.53;5060229;28;20688;-63
2021/12/01 08:52:36;;;;;;;1999.90;999.90;;;;;;;4.70;100.00;163650.88;5056259;28;20068;-63
2021/12/01 08:55:04;;;;;;;1999.90;999.90;;;;;;;4.48;100.00;163590.53;5063910;28;20626;-62
2021/12/01 08:57:30;;;;;;;1999.90;999.90;;;;;;;4.38;100.00;163564.50;5062691;28;20389;-62
2021/12/01 08:59:57;;;;;;;1999.90;999.90;;;;;;;4.18;100.00;163512.41;5057163;28;20105;-62
2021/12/01 09:02:23;;;;;;;1999.90;999.90;;;;;;;4.18;100.00;163512.41;5063788;28;20102;-63
2021/12/01 09:04:50;;;;;;;1999.90;999.90;;;;;;;3.65;100.00;163369.81;5060423;28;20049;-62
2021/12/01 09:07:19;;;;;;;1999.90;999.90;;;;;;;3.65;100.00;163369.81;5063362;28;20307;-62
2021/12/01 09:09:46;;;;;;;1999.90;999.90;;;;;;;3.47;100.00;163321.84;5061813;28;20088;-62
2021/12/01 09:12:14;;;;;;;1999.90;999.90;;;;;;;3.65;100.00;163371.16;5051041;28;20439;-63
2021/12/01 09:14:43;;;;;;;1999.90;999.90;;;;;;;3.81;100.00;163412.25;5062896;28;20049;-63
2021/12/01 09:17:12;;;;;;;1999.90;999.90;;;;;;;3.41;100.00;163306.75;5062126;28;20045;-62
2021/12/01 09:19:41;;;;;;;1999.90;999.90;;;;;;;3.68;100.00;163378.03;5057684;28;20351;-63
2021/12/01 09:22:08;;;;;;;1999.90;999.90;;;;;;;3.55;100.00;163342.38;5066015;28;20374;-63
2021/12/01 09:24:35;;;;;;;1999.90;999.90;;;;;;;4.01;100.00;163465.75;5061476;28;20048;-63
2021/12/01 09:27:02;;;;;;;1999.90;999.90;;;;;;;3.76;100.00;163398.59;5064706;28;20045;-62
2021/12/01 09:29:29;;;;;;;1999.90;999.90;;;;;;;3.43;100.00;163310.88;5062822;28;20353;-63
2021/12/01 09:31:57;;;;;;;1999.90;999.90;;;;;;;3.61;100.00;163358.81;5063448;28;20390;-62
2021/12/01 09:34:25;;;;;;;1999.90;999.90;;;;;;;3.83;100.00;163417.78;5058583;28;20324;-65
2021/12/01 09:36:52;;;;;;;1999.90;999.90;;;;;;;3.53;100.00;163339.63;5062844;28;20052;-64
2021/12/01 09:39:19;;;;;;;1999.90;999.90;;;;;;;3.78;100.00;163405.44;5060715;28;20094;-63
2021/12/01 09:41:47;;;;;;;1999.90;999.90;;;;;;;3.83;100.00;163417.78;5060369;28;20128;-65
2021/12/01 09:44:14;;;;;;;1999.90;999.90;;;;;;;3.83;100.00;163419.13;5062426;28;20056;-65
2021/12/01 09:46:41;;;;;;;1999.90;999.90;;;;;;;3.93;100.00;163443.81;5060086;28;20076;-65
2021/12/01 09:49:07;;;;;;;1999.90;999.90;;;;;;;3.81;100.00;163412.25;5063557;28;20448;-65
2021/12/01 09:51:34;;;;;;;1999.90;999.90;;;;;;;3.48;100.00;163325.94;5065020;28;20053;-65
2021/12/01 09:54:02;;;;;;;1999.90;999.90;;;;;;;3.63;100.00;163365.69;5064833;28;20098;-65
2021/12/01 09:56:30;;;;;;;1999.90;999.90;;;;;;;3.58;100.00;163351.97;5065019;28;20083;-63
2021/12/01 09:58:57;;;;;;;1999.90;999.90;;;;;;;3.56;100.00;163345.09;5058526;28;20469;-64
2021/12/01 10:01:26;;;;;;;1999.90;999.90;;;;;;;3.78;100.00;163405.44;5060391;28;20076;-65
2021/12/01 10:03:55;;;;;;;1999.90;999.90;;;;;;;3.62;100.00;163362.94;5066441;28;20052;-65
2021/12/01 10:06:23;;;;;;;1999.90;999.90;;;;;;;3.62;100.00;163361.59;5062810;28;20098;-64
2021/12/01 10:08:53;;;;;;;1999.90;999.90;;;;;;;3.75;100.00;163397.22;5059531;28;20052;-65
2021/12/01 10:11:23;;;;;;;1999.90;999.90;;;;;;;3.98;100.00;163457.53;5064278;28;20084;-65
2021/12/01 10:13:57;;;;;;;1999.90;999.90;;;;;;;3.62;100.00;163361.59;5063214;28;20061;-65
2021/12/01 10:16:29;;;;;;;1999.90;999.90;;;;;;;3.87;100.00;163430.13;5055959;28;20394;-65
2021/12/01 10:18:58;;;;;;;1999.90;999.90;;;;;;;3.56;100.00;163345.09;5064611;28;20126;-64
2021/12/01 10:21:36;;;;;;;1999.90;999.90;;;;;;;4.01;100.00;163465.75;5066214;28;20454;-65
2021/12/01 10:24:15;;;;;;;1999.90;999.90;;;;;;;4.08;100.00;163484.97;5062233;28;20083;-65
2021/12/01 10:26:46;;;;;;;1999.90;999.90;;;;;;;3.72;100.00;163387.59;5061327;28;20073;-64
2021/12/01 10:29:17;;;;;;;1999.90;999.90;;;;;;;3.62;100.00;163361.59;5057457;28;20587;-64
2021/12/01 10:31:51;;;;;;;1999.90;999.90;;;;;;;3.90;100.00;163436.97;5054276;28;20050;-65
2021/12/01 10:34:23;;;;;;;1999.90;999.90;;;;;;;3.79;100.00;163408.16;5062586;28;20331;-65
2021/12/01 10:37:05;;;;;;;1999.90;999.90;;;;;;;3.92;100.00;163442.44;5064772;28;20053;-65
2021/12/01 10:39:32;;;;;;;1999.90;999.90;;;;;;;3.68;100.00;163378.03;5065951;28;20052;-65
2021/12/01 10:42:05;;;;;;;1999.90;999.90;;;;;;;4.09;100.00;163487.66;5059629;28;20087;-65
2021/12/01 10:44:32;;;;;;;1999.90;999.90;;;;;;;3.50;100.00;163330.06;5056856;28;20402;-65
2021/12/01 10:47:08;;;;;;;1999.90;999.90;;;;;;;3.45;100.00;163317.69;5065114;28;20343;-65
2021/12/01 10:49:40;;;;;;;1999.90;999.90;;;;;;;3.62;100.00;163361.59;5062752;28;20762;-65
2021/12/01 10:52:28;;;;;;;1999.90;999.90;;;;;;;3.76;100.00;163398.59;5065141;28;20054;-65
2021/12/01 10:55:02;;;;;;;1999.90;999.90;;;;;;;3.56;100.00;163345.09;5057752;28;20068;-65
2021/12/01 10:57:29;;;;;;;1999.90;999.90;;;;;;;3.87;100.00;163430.13;5062634;28;20752;-66
2021/12/01 10:59:55;;;;;;;1999.90;999.90;;;;;;;3.76;100.00;163398.59;5059464;28;20053;-66
2021/12/01 11:02:22;;;;;;;1999.90;999.90;;;;;;;4.02;100.00;163468.47;5058342;28;20099;-66